sensor_id;sensor_type;location;lat;lon;timestamp;P1;durP1;ratioP1;P2;durP2;ratioP2
79438;SDS011;68889;48.232;10.110;2024-03-02T00:00:05;9.57;;;6.53;;
79438;SDS011;68889;48.232;10.110;2024-03-02T00:05:17;8.82;;;5.72;;
79438;SDS011;68889;48.232;10.110;2024-03-02T00:07:46;7.38;;;5.60;;
79438;SDS011;68889;48.232;10.110;2024-03-02T00:10:19;8.40;;;6.80;;
79438;SDS011;68889;48.232;10.110;2024-03-02T00:12:50;8.18;;;6.65;;
79438;SDS011;68889;48.232;10.110;2024-03-02T00:18:08;10.27;;;6.72;;
79438;SDS011;68889;48.232;10.110;2024-03-02T00:20:37;8.40;;;5.97;;
79438;SDS011;68889;48.232;10.110;2024-03-02T00:23:03;7.53;;;6.05;;
79438;SDS011;68889;48.232;10.110;2024-03-02T00:25:41;8.18;;;6.30;;
79438;SDS011;68889;48.232;10.110;2024-03-02T00:28:21;10.18;;;6.43;;
79438;SDS011;68889;48.232;10.110;2024-03-02T00:33:33;6.25;;;4.28;;
79438;SDS011;68889;48.232;10.110;2024-03-02T00:36:05;8.85;;;6.25;;
79438;SDS011;68889;48.232;10.110;2024-03-02T00:38:32;8.90;;;6.78;;
79438;SDS011;68889;48.232;10.110;2024-03-02T00:41:08;7.28;;;5.72;;
79438;SDS011;68889;48.232;10.110;2024-03-02T00:46:12;9.75;;;7.55;;
79438;SDS011;68889;48.232;10.110;2024-03-02T00:48:42;9.43;;;7.30;;
79438;SDS011;68889;48.232;10.110;2024-03-02T00:53:47;10.30;;;8.65;;
79438;SDS011;68889;48.232;10.110;2024-03-02T00:56:13;10.23;;;7.57;;
79438;SDS011;68889;48.232;10.110;2024-03-02T00:58:39;14.27;;;9.38;;
79438;SDS011;68889;48.232;10.110;2024-03-02T01:03:35;11.27;;;8.05;;
79438;SDS011;68889;48.232;10.110;2024-03-02T01:06:11;11.73;;;8.65;;
79438;SDS011;68889;48.232;10.110;2024-03-02T01:08:37;7.60;;;6.25;;
79438;SDS011;68889;48.232;10.110;2024-03-02T01:11:03;12.68;;;7.38;;
79438;SDS011;68889;48.232;10.110;2024-03-02T01:13:32;9.65;;;7.47;;
79438;SDS011;68889;48.232;10.110;2024-03-02T01:16:00;11.30;;;8.45;;
79438;SDS011;68889;48.232;10.110;2024-03-02T01:18:27;7.97;;;7.18;;
79438;SDS011;68889;48.232;10.110;2024-03-02T01:20:52;11.48;;;8.57;;
79438;SDS011;68889;48.232;10.110;2024-03-02T01:23:21;11.77;;;7.40;;
79438;SDS011;68889;48.232;10.110;2024-03-02T01:25:50;9.38;;;7.45;;
79438;SDS011;68889;48.232;10.110;2024-03-02T01:28:21;9.63;;;7.97;;
79438;SDS011;68889;48.232;10.110;2024-03-02T01:30:47;8.98;;;7.55;;
79438;SDS011;68889;48.232;10.110;2024-03-02T01:33:13;9.70;;;8.00;;
79438;SDS011;68889;48.232;10.110;2024-03-02T01:35:40;13.23;;;9.65;;
79438;SDS011;68889;48.232;10.110;2024-03-02T01:38:08;11.30;;;8.90;;
79438;SDS011;68889;48.232;10.110;2024-03-02T01:40:34;10.73;;;8.10;;
79438;SDS011;68889;48.232;10.110;2024-03-02T01:43:03;10.38;;;7.30;;
79438;SDS011;68889;48.232;10.110;2024-03-02T01:45:30;9.38;;;7.30;;
79438;SDS011;68889;48.232;10.110;2024-03-02T01:47:57;9.30;;;7.30;;
79438;SDS011;68889;48.232;10.110;2024-03-02T01:50:31;9.60;;;7.72;;
79438;SDS011;68889;48.232;10.110;2024-03-02T01:55:35;8.90;;;7.20;;
79438;SDS011;68889;48.232;10.110;2024-03-02T01:58:03;8.93;;;7.40;;
79438;SDS011;68889;48.232;10.110;2024-03-02T02:00:31;9.38;;;7.60;;
79438;SDS011;68889;48.232;10.110;2024-03-02T02:02:59;10.15;;;6.93;;
79438;SDS011;68889;48.232;10.110;2024-03-02T02:05:27;13.23;;;8.82;;
79438;SDS011;68889;48.232;10.110;2024-03-02T02:08:01;12.75;;;9.18;;
79438;SDS011;68889;48.232;10.110;2024-03-02T02:10:28;9.82;;;7.75;;
79438;SDS011;68889;48.232;10.110;2024-03-02T02:12:54;10.70;;;8.45;;
79438;SDS011;68889;48.232;10.110;2024-03-02T02:15:29;11.23;;;8.63;;
79438;SDS011;68889;48.232;10.110;2024-03-02T02:17:56;14.43;;;10.63;;
79438;SDS011;68889;48.232;10.110;2024-03-02T02:20:22;13.93;;;9.68;;
79438;SDS011;68889;48.232;10.110;2024-03-02T02:22:55;14.07;;;10.85;;
79438;SDS011;68889;48.232;10.110;2024-03-02T02:25:26;17.40;;;10.75;;
79438;SDS011;68889;48.232;10.110;2024-03-02T02:27:53;11.63;;;9.30;;
79438;SDS011;68889;48.232;10.110;2024-03-02T02:30:21;13.50;;;8.90;;
79438;SDS011;68889;48.232;10.110;2024-03-02T02:32:50;13.65;;;9.20;;
79438;SDS011;68889;48.232;10.110;2024-03-02T02:35:15;13.38;;;9.00;;
79438;SDS011;68889;48.232;10.110;2024-03-02T02:37:47;13.32;;;9.02;;
79438;SDS011;68889;48.232;10.110;2024-03-02T02:42:41;11.43;;;8.25;;
79438;SDS011;68889;48.232;10.110;2024-03-02T02:47:38;8.23;;;6.43;;
79438;SDS011;68889;48.232;10.110;2024-03-02T02:50:06;9.43;;;6.85;;
79438;SDS011;68889;48.232;10.110;2024-03-02T02:52:36;8.38;;;6.70;;
79438;SDS011;68889;48.232;10.110;2024-03-02T02:55:07;12.00;;;8.70;;
79438;SDS011;68889;48.232;10.110;2024-03-02T02:57:36;11.07;;;7.80;;
79438;SDS011;68889;48.232;10.110;2024-03-02T03:00:10;11.75;;;9.48;;
79438;SDS011;68889;48.232;10.110;2024-03-02T03:02:45;11.27;;;8.25;;
79438;SDS011;68889;48.232;10.110;2024-03-02T03:05:14;11.75;;;8.95;;
79438;SDS011;68889;48.232;10.110;2024-03-02T03:07:41;12.35;;;9.35;;
79438;SDS011;68889;48.232;10.110;2024-03-02T03:10:10;9.77;;;8.18;;
79438;SDS011;68889;48.232;10.110;2024-03-02T03:12:38;10.65;;;8.40;;
79438;SDS011;68889;48.232;10.110;2024-03-02T03:15:06;11.55;;;8.55;;
79438;SDS011;68889;48.232;10.110;2024-03-02T03:17:39;12.25;;;10.10;;
79438;SDS011;68889;48.232;10.110;2024-03-02T03:20:06;13.73;;;9.43;;
79438;SDS011;68889;48.232;10.110;2024-03-02T03:22:35;11.05;;;8.65;;
79438;SDS011;68889;48.232;10.110;2024-03-02T03:25:03;12.85;;;9.30;;
79438;SDS011;68889;48.232;10.110;2024-03-02T03:27:29;11.30;;;8.43;;
79438;SDS011;68889;48.232;10.110;2024-03-02T03:29:54;10.52;;;7.68;;
79438;SDS011;68889;48.232;10.110;2024-03-02T03:32:21;11.55;;;8.65;;
79438;SDS011;68889;48.232;10.110;2024-03-02T03:34:49;11.05;;;8.57;;
79438;SDS011;68889;48.232;10.110;2024-03-02T03:37:16;13.65;;;8.75;;
79438;SDS011;68889;48.232;10.110;2024-03-02T03:39:42;10.88;;;8.32;;
79438;SDS011;68889;48.232;10.110;2024-03-02T03:42:07;10.98;;;8.52;;
79438;SDS011;68889;48.232;10.110;2024-03-02T03:44:37;12.10;;;9.18;;
79438;SDS011;68889;48.232;10.110;2024-03-02T03:47:04;13.10;;;8.90;;
79438;SDS011;68889;48.232;10.110;2024-03-02T03:49:30;11.70;;;8.10;;
79438;SDS011;68889;48.232;10.110;2024-03-02T03:51:57;13.23;;;9.80;;
79438;SDS011;68889;48.232;10.110;2024-03-02T03:54:23;10.07;;;7.90;;
79438;SDS011;68889;48.232;10.110;2024-03-02T03:56:49;11.40;;;8.88;;
79438;SDS011;68889;48.232;10.110;2024-03-02T03:59:14;8.88;;;7.45;;
79438;SDS011;68889;48.232;10.110;2024-03-02T04:01:42;10.77;;;8.35;;
79438;SDS011;68889;48.232;10.110;2024-03-02T04:06:34;12.15;;;8.27;;
79438;SDS011;68889;48.232;10.110;2024-03-02T04:11:27;10.02;;;6.72;;
79438;SDS011;68889;48.232;10.110;2024-03-02T04:13:52;12.85;;;8.90;;
79438;SDS011;68889;48.232;10.110;2024-03-02T04:16:18;9.10;;;7.18;;
79438;SDS011;68889;48.232;10.110;2024-03-02T04:18:43;9.73;;;8.20;;
79438;SDS011;68889;48.232;10.110;2024-03-02T04:21:09;9.30;;;6.88;;
79438;SDS011;68889;48.232;10.110;2024-03-02T04:23:35;9.90;;;7.13;;
79438;SDS011;68889;48.232;10.110;2024-03-02T04:26:01;10.32;;;7.65;;
79438;SDS011;68889;48.232;10.110;2024-03-02T04:28:28;9.95;;;7.68;;
79438;SDS011;68889;48.232;10.110;2024-03-02T04:30:53;15.05;;;9.20;;
79438;SDS011;68889;48.232;10.110;2024-03-02T04:33:19;10.85;;;7.95;;
79438;SDS011;68889;48.232;10.110;2024-03-02T04:35:44;8.52;;;7.07;;
79438;SDS011;68889;48.232;10.110;2024-03-02T04:38:12;10.93;;;7.88;;
79438;SDS011;68889;48.232;10.110;2024-03-02T04:43:03;9.30;;;7.25;;
79438;SDS011;68889;48.232;10.110;2024-03-02T04:45:29;8.98;;;7.60;;
79438;SDS011;68889;48.232;10.110;2024-03-02T04:47:55;12.77;;;8.27;;
79438;SDS011;68889;48.232;10.110;2024-03-02T04:50:20;9.95;;;7.68;;
79438;SDS011;68889;48.232;10.110;2024-03-02T04:52:46;9.52;;;7.32;;
79438;SDS011;68889;48.232;10.110;2024-03-02T04:55:12;16.85;;;8.85;;
79438;SDS011;68889;48.232;10.110;2024-03-02T04:57:52;10.20;;;7.35;;
79438;SDS011;68889;48.232;10.110;2024-03-02T05:00:20;10.55;;;7.85;;
79438;SDS011;68889;48.232;10.110;2024-03-02T05:02:46;14.23;;;8.85;;
79438;SDS011;68889;48.232;10.110;2024-03-02T05:05:11;10.90;;;7.85;;
79438;SDS011;68889;48.232;10.110;2024-03-02T05:07:37;9.48;;;7.68;;
79438;SDS011;68889;48.232;10.110;2024-03-02T05:10:03;10.88;;;8.90;;
79438;SDS011;68889;48.232;10.110;2024-03-02T05:12:29;13.07;;;9.32;;
79438;SDS011;68889;48.232;10.110;2024-03-02T05:15:10;10.88;;;7.25;;
79438;SDS011;68889;48.232;10.110;2024-03-02T05:17:37;11.15;;;8.15;;
79438;SDS011;68889;48.232;10.110;2024-03-02T05:20:06;8.30;;;6.38;;
79438;SDS011;68889;48.232;10.110;2024-03-02T05:22:35;9.48;;;7.20;;
79438;SDS011;68889;48.232;10.110;2024-03-02T05:25:02;10.05;;;7.28;;
79438;SDS011;68889;48.232;10.110;2024-03-02T05:27:29;8.57;;;6.65;;
79438;SDS011;68889;48.232;10.110;2024-03-02T05:29:55;10.60;;;6.93;;
79438;SDS011;68889;48.232;10.110;2024-03-02T05:32:22;8.45;;;6.63;;
79438;SDS011;68889;48.232;10.110;2024-03-02T05:34:48;11.55;;;7.30;;
79438;SDS011;68889;48.232;10.110;2024-03-02T05:37:13;7.78;;;5.90;;
79438;SDS011;68889;48.232;10.110;2024-03-02T05:39:39;9.90;;;6.85;;
79438;SDS011;68889;48.232;10.110;2024-03-02T05:42:04;7.93;;;5.90;;
79438;SDS011;68889;48.232;10.110;2024-03-02T05:44:30;10.48;;;6.97;;
79438;SDS011;68889;48.232;10.110;2024-03-02T05:46:57;9.48;;;6.57;;
79438;SDS011;68889;48.232;10.110;2024-03-02T05:49:22;9.50;;;6.93;;
79438;SDS011;68889;48.232;10.110;2024-03-02T05:51:49;9.30;;;6.82;;
79438;SDS011;68889;48.232;10.110;2024-03-02T05:56:40;9.73;;;7.60;;
79438;SDS011;68889;48.232;10.110;2024-03-02T05:59:06;9.60;;;7.22;;
79438;SDS011;68889;48.232;10.110;2024-03-02T06:01:44;10.90;;;7.07;;
79438;SDS011;68889;48.232;10.110;2024-03-02T06:04:16;10.57;;;7.00;;
79438;SDS011;68889;48.232;10.110;2024-03-02T06:09:11;9.65;;;6.95;;
79438;SDS011;68889;48.232;10.110;2024-03-02T06:11:41;8.15;;;6.05;;
79438;SDS011;68889;48.232;10.110;2024-03-02T06:14:07;8.90;;;6.25;;
79438;SDS011;68889;48.232;10.110;2024-03-02T06:16:33;12.60;;;8.18;;
79438;SDS011;68889;48.232;10.110;2024-03-02T06:19:00;10.73;;;7.53;;
79438;SDS011;68889;48.232;10.110;2024-03-02T06:21:26;9.60;;;7.32;;
79438;SDS011;68889;48.232;10.110;2024-03-02T06:23:52;8.50;;;6.45;;
79438;SDS011;68889;48.232;10.110;2024-03-02T06:26:19;8.77;;;6.28;;
79438;SDS011;68889;48.232;10.110;2024-03-02T06:31:13;8.93;;;6.93;;
79438;SDS011;68889;48.232;10.110;2024-03-02T06:33:38;8.55;;;6.22;;
79438;SDS011;68889;48.232;10.110;2024-03-02T06:36:06;10.82;;;7.28;;
79438;SDS011;68889;48.232;10.110;2024-03-02T06:38:36;8.25;;;6.18;;
79438;SDS011;68889;48.232;10.110;2024-03-02T06:41:06;7.18;;;5.82;;
79438;SDS011;68889;48.232;10.110;2024-03-02T06:43:32;10.07;;;6.85;;
79438;SDS011;68889;48.232;10.110;2024-03-02T06:45:58;8.73;;;6.65;;
79438;SDS011;68889;48.232;10.110;2024-03-02T06:48:24;9.02;;;6.93;;
79438;SDS011;68889;48.232;10.110;2024-03-02T06:50:51;7.63;;;5.85;;
79438;SDS011;68889;48.232;10.110;2024-03-02T06:53:19;10.13;;;6.78;;
79438;SDS011;68889;48.232;10.110;2024-03-02T06:55:45;8.05;;;6.03;;
79438;SDS011;68889;48.232;10.110;2024-03-02T06:58:14;10.38;;;7.20;;
79438;SDS011;68889;48.232;10.110;2024-03-02T07:00:42;7.95;;;6.00;;
79438;SDS011;68889;48.232;10.110;2024-03-02T07:03:09;8.75;;;6.60;;
79438;SDS011;68889;48.232;10.110;2024-03-02T07:05:35;10.68;;;6.38;;
79438;SDS011;68889;48.232;10.110;2024-03-02T07:08:01;10.65;;;7.28;;
79438;SDS011;68889;48.232;10.110;2024-03-02T07:10:27;9.05;;;7.05;;
79438;SDS011;68889;48.232;10.110;2024-03-02T07:12:54;7.75;;;5.70;;
79438;SDS011;68889;48.232;10.110;2024-03-02T07:18:04;9.07;;;6.35;;
79438;SDS011;68889;48.232;10.110;2024-03-02T07:20:30;7.63;;;5.88;;
79438;SDS011;68889;48.232;10.110;2024-03-02T07:22:55;9.15;;;6.47;;
79438;SDS011;68889;48.232;10.110;2024-03-02T07:25:21;10.00;;;7.07;;
79438;SDS011;68889;48.232;10.110;2024-03-02T07:27:47;7.72;;;5.72;;
79438;SDS011;68889;48.232;10.110;2024-03-02T07:30:13;7.57;;;5.82;;
79438;SDS011;68889;48.232;10.110;2024-03-02T07:32:41;8.13;;;6.13;;
79438;SDS011;68889;48.232;10.110;2024-03-02T07:35:10;7.53;;;5.30;;
79438;SDS011;68889;48.232;10.110;2024-03-02T07:37:43;6.90;;;5.25;;
79438;SDS011;68889;48.232;10.110;2024-03-02T07:40:09;8.07;;;6.28;;
79438;SDS011;68889;48.232;10.110;2024-03-02T07:42:37;7.45;;;5.53;;
79438;SDS011;68889;48.232;10.110;2024-03-02T07:45:04;7.07;;;5.43;;
79438;SDS011;68889;48.232;10.110;2024-03-02T07:47:31;6.50;;;5.10;;
79438;SDS011;68889;48.232;10.110;2024-03-02T07:49:58;6.50;;;4.95;;
79438;SDS011;68889;48.232;10.110;2024-03-02T07:52:24;6.25;;;4.78;;
79438;SDS011;68889;48.232;10.110;2024-03-02T07:54:49;6.30;;;4.95;;
79438;SDS011;68889;48.232;10.110;2024-03-02T07:57:16;7.45;;;5.20;;
79438;SDS011;68889;48.232;10.110;2024-03-02T07:59:42;6.35;;;4.68;;
79438;SDS011;68889;48.232;10.110;2024-03-02T08:02:08;6.13;;;4.47;;
79438;SDS011;68889;48.232;10.110;2024-03-02T08:04:33;7.10;;;5.10;;
79438;SDS011;68889;48.232;10.110;2024-03-02T08:06:59;7.65;;;5.20;;
79438;SDS011;68889;48.232;10.110;2024-03-02T08:09:25;9.23;;;6.75;;
79438;SDS011;68889;48.232;10.110;2024-03-02T08:11:51;6.57;;;5.20;;
79438;SDS011;68889;48.232;10.110;2024-03-02T08:14:16;7.80;;;5.03;;
79438;SDS011;68889;48.232;10.110;2024-03-02T08:16:42;5.70;;;3.88;;
79438;SDS011;68889;48.232;10.110;2024-03-02T08:19:10;7.68;;;5.60;;
79438;SDS011;68889;48.232;10.110;2024-03-02T08:21:35;18.85;;;10.45;;
79438;SDS011;68889;48.232;10.110;2024-03-02T08:24:01;22.10;;;12.00;;
79438;SDS011;68889;48.232;10.110;2024-03-02T08:28:54;19.17;;;9.50;;
79438;SDS011;68889;48.232;10.110;2024-03-02T08:31:20;11.50;;;7.20;;
79438;SDS011;68889;48.232;10.110;2024-03-02T08:33:46;7.15;;;4.97;;
79438;SDS011;68889;48.232;10.110;2024-03-02T08:36:12;15.25;;;9.85;;
79438;SDS011;68889;48.232;10.110;2024-03-02T08:38:38;17.13;;;12.45;;
79438;SDS011;68889;48.232;10.110;2024-03-02T08:41:04;14.85;;;10.13;;
79438;SDS011;68889;48.232;10.110;2024-03-02T08:43:30;16.33;;;10.95;;
79438;SDS011;68889;48.232;10.110;2024-03-02T08:45:56;13.18;;;10.23;;
79438;SDS011;68889;48.232;10.110;2024-03-02T08:48:22;13.98;;;10.20;;
79438;SDS011;68889;48.232;10.110;2024-03-02T08:50:47;14.40;;;9.93;;
79438;SDS011;68889;48.232;10.110;2024-03-02T08:53:13;14.98;;;11.07;;
79438;SDS011;68889;48.232;10.110;2024-03-02T08:55:47;11.05;;;8.98;;
79438;SDS011;68889;48.232;10.110;2024-03-02T08:58:14;12.88;;;9.43;;
79438;SDS011;68889;48.232;10.110;2024-03-02T09:00:40;15.10;;;10.40;;
79438;SDS011;68889;48.232;10.110;2024-03-02T09:03:16;12.35;;;10.18;;
79438;SDS011;68889;48.232;10.110;2024-03-02T09:05:44;10.77;;;9.15;;
79438;SDS011;68889;48.232;10.110;2024-03-02T09:08:10;11.55;;;9.27;;
79438;SDS011;68889;48.232;10.110;2024-03-02T09:10:41;13.10;;;9.77;;
79438;SDS011;68889;48.232;10.110;2024-03-02T09:13:09;10.40;;;8.70;;
79438;SDS011;68889;48.232;10.110;2024-03-02T09:20:44;12.05;;;9.43;;
79438;SDS011;68889;48.232;10.110;2024-03-02T09:23:21;12.23;;;9.85;;
79438;SDS011;68889;48.232;10.110;2024-03-02T09:25:48;12.15;;;9.10;;
79438;SDS011;68889;48.232;10.110;2024-03-02T09:28:20;11.85;;;9.02;;
79438;SDS011;68889;48.232;10.110;2024-03-02T09:30:50;13.00;;;9.35;;
79438;SDS011;68889;48.232;10.110;2024-03-02T09:33:29;12.07;;;8.70;;
79438;SDS011;68889;48.232;10.110;2024-03-02T09:36:16;11.98;;;8.65;;
79438;SDS011;68889;48.232;10.110;2024-03-02T09:41:38;12.20;;;8.90;;
79438;SDS011;68889;48.232;10.110;2024-03-02T09:44:14;10.88;;;8.05;;
79438;SDS011;68889;48.232;10.110;2024-03-02T09:46:44;10.30;;;8.30;;
79438;SDS011;68889;48.232;10.110;2024-03-02T09:51:57;11.60;;;9.18;;
79438;SDS011;68889;48.232;10.110;2024-03-02T09:54:25;12.68;;;9.90;;
79438;SDS011;68889;48.232;10.110;2024-03-02T09:56:57;11.68;;;9.88;;
79438;SDS011;68889;48.232;10.110;2024-03-02T09:59:36;10.15;;;8.18;;
79438;SDS011;68889;48.232;10.110;2024-03-02T10:02:07;12.90;;;10.15;;
79438;SDS011;68889;48.232;10.110;2024-03-02T10:04:34;10.25;;;8.13;;
79438;SDS011;68889;48.232;10.110;2024-03-02T10:07:19;9.60;;;8.18;;
79438;SDS011;68889;48.232;10.110;2024-03-02T10:10:14;9.27;;;7.63;;
79438;SDS011;68889;48.232;10.110;2024-03-02T10:13:13;10.10;;;8.02;;
79438;SDS011;68889;48.232;10.110;2024-03-02T10:22:36;9.68;;;8.05;;
79438;SDS011;68889;48.232;10.110;2024-03-02T10:25:54;9.02;;;7.60;;
79438;SDS011;68889;48.232;10.110;2024-03-02T10:28:32;9.07;;;7.50;;
79438;SDS011;68889;48.232;10.110;2024-03-02T10:31:27;8.82;;;7.13;;
79438;SDS011;68889;48.232;10.110;2024-03-02T10:34:44;9.02;;;7.50;;
79438;SDS011;68889;48.232;10.110;2024-03-02T10:37:31;8.15;;;6.53;;
79438;SDS011;68889;48.232;10.110;2024-03-02T10:40:32;8.43;;;6.80;;
79438;SDS011;68889;48.232;10.110;2024-03-02T10:43:17;12.43;;;9.63;;
79438;SDS011;68889;48.232;10.110;2024-03-02T10:46:08;8.25;;;6.85;;
79438;SDS011;68889;48.232;10.110;2024-03-02T10:48:51;11.38;;;8.63;;
79438;SDS011;68889;48.232;10.110;2024-03-02T10:51:36;8.98;;;7.50;;
79438;SDS011;68889;48.232;10.110;2024-03-02T10:54:05;8.10;;;6.40;;
79438;SDS011;68889;48.232;10.110;2024-03-02T10:56:38;9.10;;;7.68;;
79438;SDS011;68889;48.232;10.110;2024-03-02T11:02:03;8.82;;;7.13;;
79438;SDS011;68889;48.232;10.110;2024-03-02T11:04:45;7.78;;;6.25;;
79438;SDS011;68889;48.232;10.110;2024-03-02T11:11:13;8.32;;;7.10;;
79438;SDS011;68889;48.232;10.110;2024-03-02T11:13:56;6.70;;;5.63;;
79438;SDS011;68889;48.232;10.110;2024-03-02T11:19:15;5.00;;;4.50;;
79438;SDS011;68889;48.232;10.110;2024-03-02T11:21:53;4.97;;;4.47;;
79438;SDS011;68889;48.232;10.110;2024-03-02T11:25:31;4.35;;;3.95;;
79438;SDS011;68889;48.232;10.110;2024-03-02T11:32:37;4.05;;;3.47;;
79438;SDS011;68889;48.232;10.110;2024-03-02T11:35:46;4.85;;;3.72;;
79438;SDS011;68889;48.232;10.110;2024-03-02T11:39:06;3.80;;;3.40;;
79438;SDS011;68889;48.232;10.110;2024-03-02T11:44:10;4.43;;;3.53;;
79438;SDS011;68889;48.232;10.110;2024-03-02T11:47:55;4.97;;;4.25;;
79438;SDS011;68889;48.232;10.110;2024-03-02T11:51:08;3.15;;;2.53;;
79438;SDS011;68889;48.232;10.110;2024-03-02T11:53:56;3.97;;;3.17;;
79438;SDS011;68889;48.232;10.110;2024-03-02T11:56:31;4.82;;;3.28;;
79438;SDS011;68889;48.232;10.110;2024-03-02T12:03:08;5.28;;;4.45;;
79438;SDS011;68889;48.232;10.110;2024-03-02T12:05:37;5.18;;;4.53;;
79438;SDS011;68889;48.232;10.110;2024-03-02T12:08:03;5.68;;;4.68;;
79438;SDS011;68889;48.232;10.110;2024-03-02T12:10:30;5.40;;;4.28;;
79438;SDS011;68889;48.232;10.110;2024-03-02T12:12:59;5.35;;;4.05;;
79438;SDS011;68889;48.232;10.110;2024-03-02T12:15:27;5.07;;;4.57;;
79438;SDS011;68889;48.232;10.110;2024-03-02T12:17:55;5.32;;;4.82;;
79438;SDS011;68889;48.232;10.110;2024-03-02T12:20:22;6.35;;;4.30;;
79438;SDS011;68889;48.232;10.110;2024-03-02T12:22:52;4.68;;;3.90;;
79438;SDS011;68889;48.232;10.110;2024-03-02T12:25:19;4.40;;;3.88;;
79438;SDS011;68889;48.232;10.110;2024-03-02T12:27:49;4.20;;;3.70;;
79438;SDS011;68889;48.232;10.110;2024-03-02T12:30:17;4.32;;;3.85;;
79438;SDS011;68889;48.232;10.110;2024-03-02T12:32:43;5.10;;;4.03;;
79438;SDS011;68889;48.232;10.110;2024-03-02T12:35:10;3.10;;;2.70;;
79438;SDS011;68889;48.232;10.110;2024-03-02T12:37:48;3.35;;;2.10;;
79438;SDS011;68889;48.232;10.110;2024-03-02T12:40:16;4.32;;;2.08;;
79438;SDS011;68889;48.232;10.110;2024-03-02T12:42:48;2.95;;;2.10;;
79438;SDS011;68889;48.232;10.110;2024-03-02T12:45:15;3.53;;;2.00;;
79438;SDS011;68889;48.232;10.110;2024-03-02T12:47:49;4.30;;;3.70;;
79438;SDS011;68889;48.232;10.110;2024-03-02T12:50:18;4.50;;;3.42;;
79438;SDS011;68889;48.232;10.110;2024-03-02T12:52:54;3.90;;;3.20;;
79438;SDS011;68889;48.232;10.110;2024-03-02T12:55:20;2.70;;;2.40;;
79438;SDS011;68889;48.232;10.110;2024-03-02T12:57:51;2.83;;;2.03;;
79438;SDS011;68889;48.232;10.110;2024-03-02T13:03:29;2.13;;;1.50;;
79438;SDS011;68889;48.232;10.110;2024-03-02T13:06:07;2.15;;;1.40;;
79438;SDS011;68889;48.232;10.110;2024-03-02T13:08:56;1.40;;;1.05;;
79438;SDS011;68889;48.232;10.110;2024-03-02T13:11:46;1.98;;;1.20;;
79438;SDS011;68889;48.232;10.110;2024-03-02T13:14:37;1.90;;;1.15;;
79438;SDS011;68889;48.232;10.110;2024-03-02T13:17:03;1.90;;;1.20;;
79438;SDS011;68889;48.232;10.110;2024-03-02T13:19:34;2.42;;;1.00;;
79438;SDS011;68889;48.232;10.110;2024-03-02T13:22:00;1.98;;;1.00;;
79438;SDS011;68889;48.232;10.110;2024-03-02T13:24:28;1.55;;;0.90;;
79438;SDS011;68889;48.232;10.110;2024-03-02T13:26:54;2.17;;;1.00;;
79438;SDS011;68889;48.232;10.110;2024-03-02T13:29:23;1.70;;;0.65;;
79438;SDS011;68889;48.232;10.110;2024-03-02T13:34:15;1.60;;;0.88;;
79438;SDS011;68889;48.232;10.110;2024-03-02T13:36:41;1.92;;;0.90;;
79438;SDS011;68889;48.232;10.110;2024-03-02T13:39:06;5.30;;;4.80;;
79438;SDS011;68889;48.232;10.110;2024-03-02T13:41:35;6.10;;;4.50;;
79438;SDS011;68889;48.232;10.110;2024-03-02T13:46:26;2.85;;;2.22;;
79438;SDS011;68889;48.232;10.110;2024-03-02T13:48:52;2.25;;;1.77;;
79438;SDS011;68889;48.232;10.110;2024-03-02T13:51:19;1.70;;;0.85;;
79438;SDS011;68889;48.232;10.110;2024-03-02T13:53:45;1.73;;;0.93;;
79438;SDS011;68889;48.232;10.110;2024-03-02T13:56:11;1.60;;;0.90;;
79438;SDS011;68889;48.232;10.110;2024-03-02T13:58:36;1.30;;;0.70;;
79438;SDS011;68889;48.232;10.110;2024-03-02T14:01:03;1.95;;;0.73;;
79438;SDS011;68889;48.232;10.110;2024-03-02T14:03:30;1.10;;;0.60;;
79438;SDS011;68889;48.232;10.110;2024-03-02T14:05:56;2.08;;;0.90;;
79438;SDS011;68889;48.232;10.110;2024-03-02T14:08:24;2.47;;;0.93;;
79438;SDS011;68889;48.232;10.110;2024-03-02T14:10:50;2.25;;;0.90;;
79438;SDS011;68889;48.232;10.110;2024-03-02T14:13:16;1.83;;;0.80;;
79438;SDS011;68889;48.232;10.110;2024-03-02T14:15:42;1.10;;;0.60;;
79438;SDS011;68889;48.232;10.110;2024-03-02T14:18:07;1.27;;;0.70;;
79438;SDS011;68889;48.232;10.110;2024-03-02T14:20:36;1.30;;;0.70;;
79438;SDS011;68889;48.232;10.110;2024-03-02T14:23:02;2.25;;;0.60;;
79438;SDS011;68889;48.232;10.110;2024-03-02T14:25:29;1.08;;;0.70;;
79438;SDS011;68889;48.232;10.110;2024-03-02T14:27:59;2.17;;;1.20;;
79438;SDS011;68889;48.232;10.110;2024-03-02T14:30:27;2.92;;;1.00;;
79438;SDS011;68889;48.232;10.110;2024-03-02T14:32:53;2.97;;;1.10;;
79438;SDS011;68889;48.232;10.110;2024-03-02T14:35:18;2.15;;;1.08;;
79438;SDS011;68889;48.232;10.110;2024-03-02T14:37:45;1.67;;;1.10;;
79438;SDS011;68889;48.232;10.110;2024-03-02T14:40:11;2.30;;;1.15;;
79438;SDS011;68889;48.232;10.110;2024-03-02T14:42:38;1.90;;;1.20;;
79438;SDS011;68889;48.232;10.110;2024-03-02T14:45:03;2.20;;;1.27;;
79438;SDS011;68889;48.232;10.110;2024-03-02T14:47:31;1.98;;;1.20;;
79438;SDS011;68889;48.232;10.110;2024-03-02T14:49:58;2.20;;;1.17;;
79438;SDS011;68889;48.232;10.110;2024-03-02T14:52:24;2.58;;;1.48;;
79438;SDS011;68889;48.232;10.110;2024-03-02T14:54:50;2.35;;;1.70;;
79438;SDS011;68889;48.232;10.110;2024-03-02T14:57:17;2.42;;;1.70;;
79438;SDS011;68889;48.232;10.110;2024-03-02T14:59:42;3.90;;;2.35;;
79438;SDS011;68889;48.232;10.110;2024-03-02T15:02:08;3.10;;;2.05;;
79438;SDS011;68889;48.232;10.110;2024-03-02T15:04:34;3.75;;;2.40;;
79438;SDS011;68889;48.232;10.110;2024-03-02T15:07:00;3.70;;;2.60;;
79438;SDS011;68889;48.232;10.110;2024-03-02T15:09:26;3.85;;;2.65;;
79438;SDS011;68889;48.232;10.110;2024-03-02T15:11:52;3.92;;;2.58;;
79438;SDS011;68889;48.232;10.110;2024-03-02T15:14:18;5.00;;;3.00;;
79438;SDS011;68889;48.232;10.110;2024-03-02T15:16:43;4.03;;;2.90;;
79438;SDS011;68889;48.232;10.110;2024-03-02T15:19:09;4.68;;;3.15;;
79438;SDS011;68889;48.232;10.110;2024-03-02T15:21:35;4.78;;;3.35;;
79438;SDS011;68889;48.232;10.110;2024-03-02T15:24:00;5.88;;;3.50;;
79438;SDS011;68889;48.232;10.110;2024-03-02T15:26:26;4.25;;;3.00;;
79438;SDS011;68889;48.232;10.110;2024-03-02T15:28:51;4.10;;;3.03;;
79438;SDS011;68889;48.232;10.110;2024-03-02T15:31:20;4.35;;;3.00;;
79438;SDS011;68889;48.232;10.110;2024-03-02T15:33:45;4.97;;;3.63;;
79438;SDS011;68889;48.232;10.110;2024-03-02T15:36:12;5.75;;;3.78;;
79438;SDS011;68889;48.232;10.110;2024-03-02T15:38:38;5.47;;;4.25;;
79438;SDS011;68889;48.232;10.110;2024-03-02T15:41:04;5.78;;;3.95;;
79438;SDS011;68889;48.232;10.110;2024-03-02T15:45:56;5.78;;;3.97;;
79438;SDS011;68889;48.232;10.110;2024-03-02T15:48:22;4.45;;;3.50;;
79438;SDS011;68889;48.232;10.110;2024-03-02T15:50:48;6.95;;;3.80;;
79438;SDS011;68889;48.232;10.110;2024-03-02T15:53:15;8.40;;;5.22;;
79438;SDS011;68889;48.232;10.110;2024-03-02T15:55:41;6.63;;;3.90;;
79438;SDS011;68889;48.232;10.110;2024-03-02T15:58:07;7.88;;;4.72;;
79438;SDS011;68889;48.232;10.110;2024-03-02T16:00:32;5.50;;;4.60;;
79438;SDS011;68889;48.232;10.110;2024-03-02T16:03:00;5.78;;;4.65;;
79438;SDS011;68889;48.232;10.110;2024-03-02T16:05:26;8.60;;;5.30;;
79438;SDS011;68889;48.232;10.110;2024-03-02T16:07:52;7.43;;;5.97;;
79438;SDS011;68889;48.232;10.110;2024-03-02T16:10:17;9.75;;;5.93;;
79438;SDS011;68889;48.232;10.110;2024-03-02T16:12:44;8.85;;;5.93;;
79438;SDS011;68889;48.232;10.110;2024-03-02T16:15:10;9.23;;;6.72;;